sensor_id;sensor_type;location;lat;lon;timestamp;temperature;humidity
3626;DHT22;1827;50.534;8.316;2022-12-07T00:01:38;0.90;99.90
3626;DHT22;1827;50.534;8.316;2022-12-07T00:04:05;0.80;99.90
3626;DHT22;1827;50.534;8.316;2022-12-07T00:06:36;0.70;99.90
3626;DHT22;1827;50.534;8.316;2022-12-07T00:09:12;0.70;99.90
3626;DHT22;1827;50.534;8.316;2022-12-07T00:11:39;0.80;99.90
3626;DHT22;1827;50.534;8.316;2022-12-07T00:14:07;0.80;99.90
3626;DHT22;1827;50.534;8.316;2022-12-07T00:16:35;0.90;1.00
3626;DHT22;1827;50.534;8.316;2022-12-07T00:19:01;1.00;1.00
3626;DHT22;1827;50.534;8.316;2022-12-07T00:21:30;1.10;1.00
3626;DHT22;1827;50.534;8.316;2022-12-07T00:23:57;1.40;1.00
3626;DHT22;1827;50.534;8.316;2022-12-07T00:26:25;1.60;1.00
3626;DHT22;1827;50.534;8.316;2022-12-07T00:28:53;1.70;1.00
3626;DHT22;1827;50.534;8.316;2022-12-07T00:31:20;1.80;1.00
3626;DHT22;1827;50.534;8.316;2022-12-07T00:33:47;1.80;1.00
3626;DHT22;1827;50.534;8.316;2022-12-07T00:36:14;1.80;1.00
3626;DHT22;1827;50.534;8.316;2022-12-07T00:38:41;1.80;1.00
3626;DHT22;1827;50.534;8.316;2022-12-07T00:41:17;1.90;1.00
3626;DHT22;1827;50.534;8.316;2022-12-07T00:43:43;1.90;1.00
3626;DHT22;1827;50.534;8.316;2022-12-07T00:46:12;2.00;1.00
3626;DHT22;1827;50.534;8.316;2022-12-07T00:48:39;2.00;1.00
3626;DHT22;1827;50.534;8.316;2022-12-07T00:51:05;2.20;1.00
3626;DHT22;1827;50.534;8.316;2022-12-07T00:53:34;2.20;1.00
3626;DHT22;1827;50.534;8.316;2022-12-07T00:56:06;2.10;1.00
3626;DHT22;1827;50.534;8.316;2022-12-07T00:58:35;2.10;1.00
3626;DHT22;1827;50.534;8.316;2022-12-07T01:01:02;2.10;1.00
3626;DHT22;1827;50.534;8.316;2022-12-07T01:03:28;2.20;1.00
3626;DHT22;1827;50.534;8.316;2022-12-07T01:05:54;2.20;1.00
3626;DHT22;1827;50.534;8.316;2022-12-07T01:08:22;2.20;1.00
3626;DHT22;1827;50.534;8.316;2022-12-07T01:10:49;2.30;1.00
3626;DHT22;1827;50.534;8.316;2022-12-07T01:13:15;2.40;1.00
3626;DHT22;1827;50.534;8.316;2022-12-07T01:15:43;2.30;1.00
3626;DHT22;1827;50.534;8.316;2022-12-07T01:18:10;2.30;1.00
3626;DHT22;1827;50.534;8.316;2022-12-07T01:20:35;2.30;1.00
3626;DHT22;1827;50.534;8.316;2022-12-07T01:23:07;2.30;1.00
3626;DHT22;1827;50.534;8.316;2022-12-07T01:25:34;2.40;1.00
3626;DHT22;1827;50.534;8.316;2022-12-07T01:28:00;2.30;1.00
3626;DHT22;1827;50.534;8.316;2022-12-07T01:30:26;2.40;1.00
3626;DHT22;1827;50.534;8.316;2022-12-07T01:32:56;2.40;1.00
3626;DHT22;1827;50.534;8.316;2022-12-07T01:35:22;2.30;1.00
3626;DHT22;1827;50.534;8.316;2022-12-07T01:37:49;2.30;1.00
3626;DHT22;1827;50.534;8.316;2022-12-07T01:40:15;2.40;1.00
3626;DHT22;1827;50.534;8.316;2022-12-07T01:42:44;2.40;1.00
3626;DHT22;1827;50.534;8.316;2022-12-07T01:47:50;2.40;1.00
3626;DHT22;1827;50.534;8.316;2022-12-07T01:50:22;2.50;1.00
3626;DHT22;1827;50.534;8.316;2022-12-07T01:52:50;2.40;1.00
3626;DHT22;1827;50.534;8.316;2022-12-07T01:55:18;2.50;1.00
3626;DHT22;1827;50.534;8.316;2022-12-07T01:57:47;2.40;1.00
3626;DHT22;1827;50.534;8.316;2022-12-07T02:00:14;2.50;1.00
3626;DHT22;1827;50.534;8.316;2022-12-07T02:02:52;2.50;1.00
3626;DHT22;1827;50.534;8.316;2022-12-07T02:05:20;2.50;99.90
3626;DHT22;1827;50.534;8.316;2022-12-07T02:07:47;2.50;99.90
3626;DHT22;1827;50.534;8.316;2022-12-07T02:10:18;2.50;99.90
3626;DHT22;1827;50.534;8.316;2022-12-07T02:12:47;2.50;99.90
3626;DHT22;1827;50.534;8.316;2022-12-07T02:15:17;2.60;99.90
3626;DHT22;1827;50.534;8.316;2022-12-07T02:18:07;2.70;99.90
3626;DHT22;1827;50.534;8.316;2022-12-07T02:31:02;2.70;99.90
3626;DHT22;1827;50.534;8.316;2022-12-07T02:33:35;2.70;99.90
3626;DHT22;1827;50.534;8.316;2022-12-07T02:38:51;2.60;99.90
3626;DHT22;1827;50.534;8.316;2022-12-07T02:41:26;2.60;99.90
3626;DHT22;1827;50.534;8.316;2022-12-07T02:43:55;2.60;99.90
3626;DHT22;1827;50.534;8.316;2022-12-07T02:46:31;2.70;99.90
3626;DHT22;1827;50.534;8.316;2022-12-07T02:49:03;2.80;99.90
3626;DHT22;1827;50.534;8.316;2022-12-07T02:51:30;2.70;99.90
3626;DHT22;1827;50.534;8.316;2022-12-07T02:53:55;2.70;99.90
3626;DHT22;1827;50.534;8.316;2022-12-07T02:56:37;2.60;99.90
3626;DHT22;1827;50.534;8.316;2022-12-07T03:04:15;2.70;99.90
3626;DHT22;1827;50.534;8.316;2022-12-07T03:06:50;2.70;99.90
3626;DHT22;1827;50.534;8.316;2022-12-07T03:09:23;2.60;99.90
3626;DHT22;1827;50.534;8.316;2022-12-07T03:12:21;2.70;99.90
3626;DHT22;1827;50.534;8.316;2022-12-07T03:14:41;2.70;99.90
3626;DHT22;1827;50.534;8.316;2022-12-07T03:17:20;2.60;99.90
3626;DHT22;1827;50.534;8.316;2022-12-07T03:19:48;2.70;99.90
3626;DHT22;1827;50.534;8.316;2022-12-07T03:22:16;2.60;99.90
3626;DHT22;1827;50.534;8.316;2022-12-07T03:24:45;2.70;99.90
3626;DHT22;1827;50.534;8.316;2022-12-07T03:27:21;2.70;99.90
3626;DHT22;1827;50.534;8.316;2022-12-07T03:30:10;2.70;99.90
3626;DHT22;1827;50.534;8.316;2022-12-07T03:33:09;2.70;99.90
3626;DHT22;1827;50.534;8.316;2022-12-07T03:35:33;2.70;99.90
3626;DHT22;1827;50.534;8.316;2022-12-07T03:38:17;2.70;99.90
3626;DHT22;1827;50.534;8.316;2022-12-07T03:41:17;2.70;99.90
3626;DHT22;1827;50.534;8.316;2022-12-07T03:43:35;2.70;99.90
3626;DHT22;1827;50.534;8.316;2022-12-07T03:48:44;2.80;99.90
3626;DHT22;1827;50.534;8.316;2022-12-07T03:54:32;2.70;99.90
3626;DHT22;1827;50.534;8.316;2022-12-07T03:56:59;2.70;99.90
3626;DHT22;1827;50.534;8.316;2022-12-07T03:59:26;2.80;99.90
3626;DHT22;1827;50.534;8.316;2022-12-07T04:02:43;2.80;99.90
3626;DHT22;1827;50.534;8.316;2022-12-07T04:05:10;2.90;99.90
3626;DHT22;1827;50.534;8.316;2022-12-07T04:07:37;2.90;99.90
3626;DHT22;1827;50.534;8.316;2022-12-07T04:10:07;2.80;99.90
3626;DHT22;1827;50.534;8.316;2022-12-07T04:12:35;2.80;99.90
3626;DHT22;1827;50.534;8.316;2022-12-07T04:15:00;2.70;99.90
3626;DHT22;1827;50.534;8.316;2022-12-07T04:17:26;2.70;99.90
3626;DHT22;1827;50.534;8.316;2022-12-07T04:19:53;2.70;99.90
3626;DHT22;1827;50.534;8.316;2022-12-07T04:22:19;2.70;99.90
3626;DHT22;1827;50.534;8.316;2022-12-07T04:24:45;2.80;99.90
3626;DHT22;1827;50.534;8.316;2022-12-07T04:27:11;2.80;99.90
3626;DHT22;1827;50.534;8.316;2022-12-07T04:29:38;2.80;99.90
3626;DHT22;1827;50.534;8.316;2022-12-07T04:32:05;2.90;99.90
3626;DHT22;1827;50.534;8.316;2022-12-07T04:34:31;2.90;99.90
3626;DHT22;1827;50.534;8.316;2022-12-07T04:36:57;2.90;99.90
3626;DHT22;1827;50.534;8.316;2022-12-07T04:39:26;3.00;99.90
3626;DHT22;1827;50.534;8.316;2022-12-07T04:41:55;2.90;99.90
3626;DHT22;1827;50.534;8.316;2022-12-07T04:44:22;3.10;99.90
3626;DHT22;1827;50.534;8.316;2022-12-07T04:46:49;3.10;99.90
3626;DHT22;1827;50.534;8.316;2022-12-07T04:49:17;3.10;99.90
3626;DHT22;1827;50.534;8.316;2022-12-07T04:51:42;3.10;99.90
3626;DHT22;1827;50.534;8.316;2022-12-07T04:54:08;3.00;99.90
3626;DHT22;1827;50.534;8.316;2022-12-07T04:56:35;3.10;99.90
3626;DHT22;1827;50.534;8.316;2022-12-07T04:59:11;3.20;99.90
3626;DHT22;1827;50.534;8.316;2022-12-07T05:01:45;3.10;99.90
3626;DHT22;1827;50.534;8.316;2022-12-07T05:04:10;3.10;99.90
3626;DHT22;1827;50.534;8.316;2022-12-07T05:06:36;3.10;99.90
3626;DHT22;1827;50.534;8.316;2022-12-07T05:09:02;3.10;99.70
3626;DHT22;1827;50.534;8.316;2022-12-07T05:11:28;3.20;97.90
3626;DHT22;1827;50.534;8.316;2022-12-07T05:14:10;3.20;99.90
3626;DHT22;1827;50.534;8.316;2022-12-07T05:16:37;3.20;94.30
3626;DHT22;1827;50.534;8.316;2022-12-07T05:19:05;3.10;94.10
3626;DHT22;1827;50.534;8.316;2022-12-07T05:21:30;3.20;99.90
3626;DHT22;1827;50.534;8.316;2022-12-07T05:23:56;3.20;99.90
3626;DHT22;1827;50.534;8.316;2022-12-07T05:26:23;3.30;99.90
3626;DHT22;1827;50.534;8.316;2022-12-07T05:28:53;3.20;99.90
3626;DHT22;1827;50.534;8.316;2022-12-07T05:31:19;3.20;99.90
3626;DHT22;1827;50.534;8.316;2022-12-07T05:33:46;3.20;99.90
3626;DHT22;1827;50.534;8.316;2022-12-07T05:36:12;3.20;99.90
3626;DHT22;1827;50.534;8.316;2022-12-07T05:38:37;3.20;99.90
3626;DHT22;1827;50.534;8.316;2022-12-07T05:41:04;3.20;99.90
3626;DHT22;1827;50.534;8.316;2022-12-07T05:43:32;3.20;99.90
3626;DHT22;1827;50.534;8.316;2022-12-07T05:45:57;3.10;99.90
3626;DHT22;1827;50.534;8.316;2022-12-07T05:48:23;3.10;99.90
3626;DHT22;1827;50.534;8.316;2022-12-07T05:50:49;3.20;99.90
3626;DHT22;1827;50.534;8.316;2022-12-07T05:53:15;3.20;99.90
3626;DHT22;1827;50.534;8.316;2022-12-07T05:55:43;3.10;99.90
3626;DHT22;1827;50.534;8.316;2022-12-07T05:58:10;3.30;99.90
3626;DHT22;1827;50.534;8.316;2022-12-07T06:00:54;3.20;99.90
3626;DHT22;1827;50.534;8.316;2022-12-07T06:03:20;3.20;99.90
3626;DHT22;1827;50.534;8.316;2022-12-07T06:05:46;3.20;99.90
3626;DHT22;1827;50.534;8.316;2022-12-07T06:08:12;3.20;99.90
3626;DHT22;1827;50.534;8.316;2022-12-07T06:10:40;3.10;99.90
3626;DHT22;1827;50.534;8.316;2022-12-07T06:13:08;3.20;99.90
3626;DHT22;1827;50.534;8.316;2022-12-07T06:15:37;3.20;99.90
3626;DHT22;1827;50.534;8.316;2022-12-07T06:18:04;3.20;99.90
3626;DHT22;1827;50.534;8.316;2022-12-07T06:20:30;3.20;99.90
3626;DHT22;1827;50.534;8.316;2022-12-07T06:22:57;3.30;99.90
3626;DHT22;1827;50.534;8.316;2022-12-07T06:25:23;3.30;99.90
3626;DHT22;1827;50.534;8.316;2022-12-07T06:27:48;3.20;99.90
3626;DHT22;1827;50.534;8.316;2022-12-07T06:30:17;3.30;99.90
3626;DHT22;1827;50.534;8.316;2022-12-07T06:32:44;3.20;99.90
3626;DHT22;1827;50.534;8.316;2022-12-07T06:35:09;3.30;99.90
3626;DHT22;1827;50.534;8.316;2022-12-07T06:37:35;3.30;99.90
3626;DHT22;1827;50.534;8.316;2022-12-07T06:40:01;3.30;99.90
3626;DHT22;1827;50.534;8.316;2022-12-07T06:42:31;3.30;99.90
3626;DHT22;1827;50.534;8.316;2022-12-07T06:44:56;3.30;95.40
3626;DHT22;1827;50.534;8.316;2022-12-07T06:47:22;3.30;91.70
3626;DHT22;1827;50.534;8.316;2022-12-07T06:49:49;3.40;74.80
3626;DHT22;1827;50.534;8.316;2022-12-07T06:52:17;3.30;51.50
3626;DHT22;1827;50.534;8.316;2022-12-07T06:54:42;3.30;42.50
3626;DHT22;1827;50.534;8.316;2022-12-07T06:57:14;3.30;42.50
3626;DHT22;1827;50.534;8.316;2022-12-07T06:59:40;3.40;22.00
3626;DHT22;1827;50.534;8.316;2022-12-07T07:02:07;3.30;9.70
3626;DHT22;1827;50.534;8.316;2022-12-07T07:04:34;3.40;5.80
3626;DHT22;1827;50.534;8.316;2022-12-07T07:07:00;3.40;1.00
3626;DHT22;1827;50.534;8.316;2022-12-07T07:09:26;3.30;1.00
3626;DHT22;1827;50.534;8.316;2022-12-07T07:11:52;3.30;1.00
3626;DHT22;1827;50.534;8.316;2022-12-07T07:14:18;3.30;1.00
3626;DHT22;1827;50.534;8.316;2022-12-07T07:16:48;3.40;1.00
3626;DHT22;1827;50.534;8.316;2022-12-07T07:19:14;3.40;1.00
3626;DHT22;1827;50.534;8.316;2022-12-07T07:21:41;3.40;1.00
3626;DHT22;1827;50.534;8.316;2022-12-07T07:24:08;3.40;1.00
3626;DHT22;1827;50.534;8.316;2022-12-07T07:26:36;3.40;1.00
3626;DHT22;1827;50.534;8.316;2022-12-07T07:29:02;3.40;1.00
3626;DHT22;1827;50.534;8.316;2022-12-07T07:31:27;3.30;1.00
3626;DHT22;1827;50.534;8.316;2022-12-07T07:33:54;3.30;1.00
3626;DHT22;1827;50.534;8.316;2022-12-07T07:36:20;3.30;1.00
3626;DHT22;1827;50.534;8.316;2022-12-07T07:38:45;3.20;1.00
3626;DHT22;1827;50.534;8.316;2022-12-07T07:41:12;3.20;1.00
3626;DHT22;1827;50.534;8.316;2022-12-07T07:43:41;3.20;1.00
3626;DHT22;1827;50.534;8.316;2022-12-07T07:46:08;3.30;1.00
3626;DHT22;1827;50.534;8.316;2022-12-07T07:48:37;3.30;1.00
3626;DHT22;1827;50.534;8.316;2022-12-07T07:51:06;3.30;1.00
3626;DHT22;1827;50.534;8.316;2022-12-07T07:53:33;3.30;1.00
3626;DHT22;1827;50.534;8.316;2022-12-07T07:55:59;3.20;1.00
3626;DHT22;1827;50.534;8.316;2022-12-07T07:58:25;3.10;1.00
3626;DHT22;1827;50.534;8.316;2022-12-07T08:00:51;3.10;1.00
3626;DHT22;1827;50.534;8.316;2022-12-07T08:03:17;3.10;1.00
3626;DHT22;1827;50.534;8.316;2022-12-07T08:05:45;3.10;1.00
3626;DHT22;1827;50.534;8.316;2022-12-07T08:08:12;3.00;1.00
3626;DHT22;1827;50.534;8.316;2022-12-07T08:10:39;3.00;1.00
3626;DHT22;1827;50.534;8.316;2022-12-07T08:13:05;3.00;1.00
3626;DHT22;1827;50.534;8.316;2022-12-07T08:15:37;2.90;1.00
3626;DHT22;1827;50.534;8.316;2022-12-07T08:18:05;2.90;1.00
3626;DHT22;1827;50.534;8.316;2022-12-07T08:20:31;2.90;1.00
3626;DHT22;1827;50.534;8.316;2022-12-07T08:22:58;3.00;1.00
3626;DHT22;1827;50.534;8.316;2022-12-07T08:25:25;3.10;1.00
3626;DHT22;1827;50.534;8.316;2022-12-07T08:27:55;3.20;1.00
3626;DHT22;1827;50.534;8.316;2022-12-07T08:30:22;3.30;1.00
3626;DHT22;1827;50.534;8.316;2022-12-07T08:32:48;3.40;1.00
3626;DHT22;1827;50.534;8.316;2022-12-07T08:35:15;3.40;1.00
3626;DHT22;1827;50.534;8.316;2022-12-07T08:37:44;3.40;1.00
3626;DHT22;1827;50.534;8.316;2022-12-07T08:40:12;3.30;1.00
3626;DHT22;1827;50.534;8.316;2022-12-07T08:42:49;3.30;1.00
3626;DHT22;1827;50.534;8.316;2022-12-07T08:45:15;3.40;1.00
3626;DHT22;1827;50.534;8.316;2022-12-07T08:47:55;3.40;1.00
3626;DHT22;1827;50.534;8.316;2022-12-07T08:50:23;3.40;1.00
3626;DHT22;1827;50.534;8.316;2022-12-07T08:52:52;3.40;1.00
3626;DHT22;1827;50.534;8.316;2022-12-07T08:55:21;3.40;1.00
3626;DHT22;1827;50.534;8.316;2022-12-07T08:57:49;3.50;1.00
3626;DHT22;1827;50.534;8.316;2022-12-07T09:00:16;3.30;1.00
3626;DHT22;1827;50.534;8.316;2022-12-07T09:02:46;3.30;1.00
3626;DHT22;1827;50.534;8.316;2022-12-07T09:05:12;3.50;1.00
3626;DHT22;1827;50.534;8.316;2022-12-07T09:07:43;3.70;1.00
3626;DHT22;1827;50.534;8.316;2022-12-07T09:10:12;3.80;1.00
3626;DHT22;1827;50.534;8.316;2022-12-07T09:12:42;3.80;1.00
3626;DHT22;1827;50.534;8.316;2022-12-07T09:15:10;3.90;1.00
3626;DHT22;1827;50.534;8.316;2022-12-07T09:17:41;4.00;1.00
3626;DHT22;1827;50.534;8.316;2022-12-07T09:20:11;4.20;1.00
3626;DHT22;1827;50.534;8.316;2022-12-07T09:22:40;4.30;1.00
3626;DHT22;1827;50.534;8.316;2022-12-07T09:25:10;4.50;1.00
3626;DHT22;1827;50.534;8.316;2022-12-07T09:27:37;4.60;1.00
3626;DHT22;1827;50.534;8.316;2022-12-07T09:30:08;4.60;1.00
3626;DHT22;1827;50.534;8.316;2022-12-07T09:32:34;4.40;1.00
3626;DHT22;1827;50.534;8.316;2022-12-07T09:35:01;4.40;1.00
3626;DHT22;1827;50.534;8.316;2022-12-07T09:37:30;4.30;1.00
3626;DHT22;1827;50.534;8.316;2022-12-07T09:40:06;4.30;1.00
3626;DHT22;1827;50.534;8.316;2022-12-07T09:42:38;4.40;1.00
3626;DHT22;1827;50.534;8.316;2022-12-07T09:45:15;4.40;1.00
3626;DHT22;1827;50.534;8.316;2022-12-07T09:47:46;4.60;1.00
3626;DHT22;1827;50.534;8.316;2022-12-07T09:50:20;5.00;1.00
3626;DHT22;1827;50.534;8.316;2022-12-07T09:52:50;5.00;1.00
3626;DHT22;1827;50.534;8.316;2022-12-07T09:55:21;5.00;1.00
3626;DHT22;1827;50.534;8.316;2022-12-07T09:57:53;4.90;1.00
3626;DHT22;1827;50.534;8.316;2022-12-07T10:00:26;4.90;1.00
3626;DHT22;1827;50.534;8.316;2022-12-07T10:02:58;4.90;1.00
3626;DHT22;1827;50.534;8.316;2022-12-07T10:07:52;5.20;1.00
3626;DHT22;1827;50.534;8.316;2022-12-07T10:10:22;5.30;1.00
3626;DHT22;1827;50.534;8.316;2022-12-07T10:12:57;5.30;1.00
3626;DHT22;1827;50.534;8.316;2022-12-07T10:15:42;5.10;1.00
3626;DHT22;1827;50.534;8.316;2022-12-07T10:18:47;5.00;1.00
3626;DHT22;1827;50.534;8.316;2022-12-07T10:23:37;5.00;1.00
3626;DHT22;1827;50.534;8.316;2022-12-07T10:28:54;5.00;1.00
3626;DHT22;1827;50.534;8.316;2022-12-07T10:31:25;5.20;1.00
3626;DHT22;1827;50.534;8.316;2022-12-07T10:34:00;5.20;1.00
3626;DHT22;1827;50.534;8.316;2022-12-07T10:36:34;5.30;1.00
3626;DHT22;1827;50.534;8.316;2022-12-07T10:39:16;5.60;1.00
3626;DHT22;1827;50.534;8.316;2022-12-07T10:42:00;5.70;1.00
3626;DHT22;1827;50.534;8.316;2022-12-07T10:44:31;5.80;1.00
3626;DHT22;1827;50.534;8.316;2022-12-07T10:57:42;5.70;1.00
3626;DHT22;1827;50.534;8.316;2022-12-07T11:05:19;5.30;1.00
3626;DHT22;1827;50.534;8.316;2022-12-07T11:18:24;5.40;1.00
3626;DHT22;1827;50.534;8.316;2022-12-07T11:23:52;5.30;1.00
3626;DHT22;1827;50.534;8.316;2022-12-07T11:32:04;5.30;1.00
3626;DHT22;1827;50.534;8.316;2022-12-07T11:37:08;5.20;1.00
3626;DHT22;1827;50.534;8.316;2022-12-07T11:39:41;5.10;1.00
3626;DHT22;1827;50.534;8.316;2022-12-07T11:42:16;4.90;1.00
3626;DHT22;1827;50.534;8.316;2022-12-07T11:47:21;5.20;1.00
3626;DHT22;1827;50.534;8.316;2022-12-07T11:50:26;5.30;1.00
3626;DHT22;1827;50.534;8.316;2022-12-07T11:52:49;5.30;1.00
3626;DHT22;1827;50.534;8.316;2022-12-07T11:55:26;5.20;1.00
3626;DHT22;1827;50.534;8.316;2022-12-07T11:57:58;5.20;1.00
3626;DHT22;1827;50.534;8.316;2022-12-07T12:00:30;5.20;1.00
3626;DHT22;1827;50.534;8.316;2022-12-07T12:03:03;5.20;1.00
3626;DHT22;1827;50.534;8.316;2022-12-07T12:05:33;5.30;1.00
3626;DHT22;1827;50.534;8.316;2022-12-07T12:10:40;5.40;1.00
3626;DHT22;1827;50.534;8.316;2022-12-07T12:13:16;5.40;1.00
3626;DHT22;1827;50.534;8.316;2022-12-07T12:21:07;5.40;1.00
3626;DHT22;1827;50.534;8.316;2022-12-07T12:26:23;5.40;1.00
3626;DHT22;1827;50.534;8.316;2022-12-07T12:33:49;5.50;1.00
3626;DHT22;1827;50.534;8.316;2022-12-07T12:36:20;5.60;1.00
3626;DHT22;1827;50.534;8.316;2022-12-07T12:47:01;5.80;1.00
3626;DHT22;1827;50.534;8.316;2022-12-07T12:49:38;5.90;1.00
3626;DHT22;1827;50.534;8.316;2022-12-07T12:54:38;5.90;1.00
3626;DHT22;1827;50.534;8.316;2022-12-07T12:59:36;5.80;1.00
3626;DHT22;1827;50.534;8.316;2022-12-07T13:02:21;5.80;1.00
3626;DHT22;1827;50.534;8.316;2022-12-07T13:18:02;5.40;1.00
3626;DHT22;1827;50.534;8.316;2022-12-07T13:20:43;5.50;1.00
3626;DHT22;1827;50.534;8.316;2022-12-07T13:23:20;5.40;1.00
3626;DHT22;1827;50.534;8.316;2022-12-07T13:28:24;5.30;1.00
3626;DHT22;1827;50.534;8.316;2022-12-07T13:33:35;5.10;1.00
3626;DHT22;1827;50.534;8.316;2022-12-07T13:36:08;5.10;1.00
3626;DHT22;1827;50.534;8.316;2022-12-07T13:38:47;5.00;1.00
3626;DHT22;1827;50.534;8.316;2022-12-07T13:41:17;5.10;1.00
3626;DHT22;1827;50.534;8.316;2022-12-07T13:43:52;5.10;1.00
3626;DHT22;1827;50.534;8.316;2022-12-07T13:46:26;5.10;1.00
3626;DHT22;1827;50.534;8.316;2022-12-07T13:48:55;5.20;1.00
3626;DHT22;1827;50.534;8.316;2022-12-07T13:51:24;5.30;1.00
3626;DHT22;1827;50.534;8.316;2022-12-07T13:53:54;5.30;1.00
3626;DHT22;1827;50.534;8.316;2022-12-07T13:56:36;5.20;1.00
3626;DHT22;1827;50.534;8.316;2022-12-07T13:59:02;5.10;1.00
3626;DHT22;1827;50.534;8.316;2022-12-07T14:01:30;5.10;1.00
3626;DHT22;1827;50.534;8.316;2022-12-07T14:04:16;5.20;1.00
3626;DHT22;1827;50.534;8.316;2022-12-07T14:06:49;5.10;1.00
3626;DHT22;1827;50.534;8.316;2022-12-07T14:09:20;5.00;1.00
3626;DHT22;1827;50.534;8.316;2022-12-07T14:11:50;5.00;1.00
3626;DHT22;1827;50.534;8.316;2022-12-07T14:14:23;4.90;1.00
3626;DHT22;1827;50.534;8.316;2022-12-07T14:16:58;5.00;1.00
3626;DHT22;1827;50.534;8.316;2022-12-07T14:19:43;4.90;1.00
3626;DHT22;1827;50.534;8.316;2022-12-07T14:24:57;4.80;1.00
3626;DHT22;1827;50.534;8.316;2022-12-07T14:27:29;4.70;1.00
3626;DHT22;1827;50.534;8.316;2022-12-07T14:29:59;4.60;1.00
3626;DHT22;1827;50.534;8.316;2022-12-07T14:32:28;4.50;1.00
3626;DHT22;1827;50.534;8.316;2022-12-07T14:34:56;4.50;1.00
3626;DHT22;1827;50.534;8.316;2022-12-07T14:37:25;4.50;1.00
3626;DHT22;1827;50.534;8.316;2022-12-07T14:39:51;4.40;1.00
3626;DHT22;1827;50.534;8.316;2022-12-07T14:42:17;4.30;1.00
3626;DHT22;1827;50.534;8.316;2022-12-07T14:44:45;4.20;1.00
3626;DHT22;1827;50.534;8.316;2022-12-07T14:47:11;4.20;1.00
3626;DHT22;1827;50.534;8.316;2022-12-07T14:49:38;4.00;1.00
3626;DHT22;1827;50.534;8.316;2022-12-07T14:52:09;4.00;1.00
3626;DHT22;1827;50.534;8.316;2022-12-07T14:54:37;4.00;1.00
3626;DHT22;1827;50.534;8.316;2022-12-07T14:57:08;4.00;1.00
3626;DHT22;1827;50.534;8.316;2022-12-07T14:59:37;3.90;1.00
3626;DHT22;1827;50.534;8.316;2022-12-07T15:02:04;3.90;1.00
3626;DHT22;1827;50.534;8.316;2022-12-07T15:04:33;3.90;1.00
3626;DHT22;1827;50.534;8.316;2022-12-07T15:07:01;3.80;1.00
3626;DHT22;1827;50.534;8.316;2022-12-07T15:09:27;3.90;1.00
3626;DHT22;1827;50.534;8.316;2022-12-07T15:11:53;3.90;1.00
3626;DHT22;1827;50.534;8.316;2022-12-07T15:14:18;3.80;1.00
3626;DHT22;1827;50.534;8.316;2022-12-07T15:16:45;3.80;1.00
3626;DHT22;1827;50.534;8.316;2022-12-07T15:19:16;3.70;1.00
3626;DHT22;1827;50.534;8.316;2022-12-07T15:21:42;3.60;1.00
3626;DHT22;1827;50.534;8.316;2022-12-07T15:24:11;3.60;1.00
3626;DHT22;1827;50.534;8.316;2022-12-07T15:26:39;3.60;1.00
3626;DHT22;1827;50.534;8.316;2022-12-07T15:29:06;3.50;1.00
3626;DHT22;1827;50.534;8.316;2022-12-07T15:31:34;3.50;1.00
3626;DHT22;1827;50.534;8.316;2022-12-07T15:34:01;3.50;1.00
3626;DHT22;1827;50.534;8.316;2022-12-07T15:36:28;3.40;1.00
3626;DHT22;1827;50.534;8.316;2022-12-07T15:38:58;3.40;1.00
3626;DHT22;1827;50.534;8.316;2022-12-07T15:41:25;3.50;1.00
3626;DHT22;1827;50.534;8.316;2022-12-07T15:43:51;3.40;1.00
3626;DHT22;1827;50.534;8.316;2022-12-07T15:46:39;3.30;1.00
3626;DHT22;1827;50.534;8.316;2022-12-07T15:49:13;3.30;1.00
3626;DHT22;1827;50.534;8.316;2022-12-07T15:51:41;3.40;1.00
3626;DHT22;1827;50.534;8.316;2022-12-07T15:54:08;3.50;1.00
3626;DHT22;1827;50.534;8.316;2022-12-07T15:56:37;3.40;1.00
3626;DHT22;1827;50.534;8.316;2022-12-07T15:59:02;3.50;1.00
3626;DHT22;1827;50.534;8.316;2022-12-07T16:01:28;3.50;1.00
3626;DHT22;1827;50.534;8.316;2022-12-07T16:03:54;3.50;1.00
3626;DHT22;1827;50.534;8.316;2022-12-07T16:06:22;3.50;1.00
3626;DHT22;1827;50.534;8.316;2022-12-07T16:08:47;3.50;1.00
3626;DHT22;1827;50.534;8.316;2022-12-07T16:11:13;3.40;1.00
3626;DHT22;1827;50.534;8.316;2022-12-07T16:13:39;3.40;1.00
3626;DHT22;1827;50.534;8.316;2022-12-07T16:16:05;3.40;1.00
3626;DHT22;1827;50.534;8.316;2022-12-07T16:18:33;3.40;1.00
3626;DHT22;1827;50.534;8.316;2022-12-07T16:20:58;3.40;1.00
3626;DHT22;1827;50.534;8.316;2022-12-07T16:23:24;3.40;1.00
3626;DHT22;1827;50.534;8.316;2022-12-07T16:25:49;3.50;1.00
3626;DHT22;1827;50.534;8.316;2022-12-07T16:28:15;3.50;1.00
3626;DHT22;1827;50.534;8.316;2022-12-07T16:30:41;3.40;1.00
3626;DHT22;1827;50.534;8.316;2022-12-07T16:33:06;3.30;1.00
3626;DHT22;1827;50.534;8.316;2022-12-07T16:35:33;3.40;1.00
3626;DHT22;1827;50.534;8.316;2022-12-07T16:38:01;3.40;1.00
3626;DHT22;1827;50.534;8.316;2022-12-07T16:40:27;3.40;1.00
3626;DHT22;1827;50.534;8.316;2022-12-07T16:42:52;3.40;1.00
3626;DHT22;1827;50.534;8.316;2022-12-07T16:45:18;3.40;1.00
3626;DHT22;1827;50.534;8.316;2022-12-07T16:47:44;3.40;1.00
3626;DHT22;1827;50.534;8.316;2022-12-07T16:50:09;3.40;1.00
3626;DHT22;1827;50.534;8.316;2022-12-07T16:52:35;3.40;1.00
3626;DHT22;1827;50.534;8.316;2022-12-07T16:55:01;3.40;1.00
3626;DHT22;1827;50.534;8.316;2022-12-07T16:57:28;3.30;1.00
3626;DHT22;1827;50.534;8.316;2022-12-07T16:59:55;3.30;1.00
3626;DHT22;1827;50.534;8.316;2022-12-07T17:02:22;3.30;1.00
3626;DHT22;1827;50.534;8.316;2022-12-07T17:04:48;3.30;1.00
3626;DHT22;1827;50.534;8.316;2022-12-07T17:07:13;3.30;1.00
3626;DHT22;1827;50.534;8.316;2022-12-07T17:09:39;3.20;1.00
3626;DHT22;1827;50.534;8.316;2022-12-07T17:12:05;3.20;1.00
3626;DHT22;1827;50.534;8.316;2022-12-07T17:14:31;3.20;1.00
3626;DHT22;1827;50.534;8.316;2022-12-07T17:17:16;3.30;1.00
3626;DHT22;1827;50.534;8.316;2022-12-07T17:19:41;3.20;1.00
3626;DHT22;1827;50.534;8.316;2022-12-07T17:22:09;3.10;1.00
3626;DHT22;1827;50.534;8.316;2022-12-07T17:24:37;3.10;1.00
3626;DHT22;1827;50.534;8.316;2022-12-07T17:27:03;3.00;1.00
3626;DHT22;1827;50.534;8.316;2022-12-07T17:29:33;3.00;1.00
3626;DHT22;1827;50.534;8.316;2022-12-07T17:31:59;2.90;1.00
3626;DHT22;1827;50.534;8.316;2022-12-07T17:34:24;2.90;1.00
3626;DHT22;1827;50.534;8.316;2022-12-07T17:36:50;2.80;1.00
3626;DHT22;1827;50.534;8.316;2022-12-07T17:39:16;2.80;1.00
3626;DHT22;1827;50.534;8.316;2022-12-07T17:41:42;2.90;1.00
3626;DHT22;1827;50.534;8.316;2022-12-07T17:44:26;2.90;1.00
3626;DHT22;1827;50.534;8.316;2022-12-07T17:46:52;2.80;1.00
3626;DHT22;1827;50.534;8.316;2022-12-07T17:49:28;2.80;1.00
3626;DHT22;1827;50.534;8.316;2022-12-07T17:51:53;2.90;1.00
3626;DHT22;1827;50.534;8.316;2022-12-07T17:54:38;2.80;1.00
3626;DHT22;1827;50.534;8.316;2022-12-07T17:57:03;2.90;1.00
3626;DHT22;1827;50.534;8.316;2022-12-07T17:59:29;2.90;1.00
3626;DHT22;1827;50.534;8.316;2022-12-07T18:01:55;3.00;1.00
3626;DHT22;1827;50.534;8.316;2022-12-07T18:04:20;3.00;1.00
3626;DHT22;1827;50.534;8.316;2022-12-07T18:06:46;3.00;1.00
3626;DHT22;1827;50.534;8.316;2022-12-07T18:09:13;3.00;1.00
3626;DHT22;1827;50.534;8.316;2022-12-07T18:11:40;3.00;1.00
3626;DHT22;1827;50.534;8.316;2022-12-07T18:14:05;3.10;1.00
3626;DHT22;1827;50.534;8.316;2022-12-07T18:16:31;3.20;1.00
3626;DHT22;1827;50.534;8.316;2022-12-07T18:19:01;3.20;1.00
3626;DHT22;1827;50.534;8.316;2022-12-07T18:21:29;3.20;1.00
3626;DHT22;1827;50.534;8.316;2022-12-07T18:23:56;3.20;1.00
3626;DHT22;1827;50.534;8.316;2022-12-07T18:26:25;3.20;1.00
3626;DHT22;1827;50.534;8.316;2022-12-07T18:28:51;3.20;1.00
3626;DHT22;1827;50.534;8.316;2022-12-07T18:31:17;3.30;1.00
3626;DHT22;1827;50.534;8.316;2022-12-07T18:33:44;3.20;1.00
3626;DHT22;1827;50.534;8.316;2022-12-07T18:36:20;3.20;1.00
3626;DHT22;1827;50.534;8.316;2022-12-07T18:38:45;3.20;1.00
3626;DHT22;1827;50.534;8.316;2022-12-07T18:41:12;3.20;1.00
3626;DHT22;1827;50.534;8.316;2022-12-07T18:43:38;3.20;1.00
3626;DHT22;1827;50.534;8.316;2022-12-07T18:46:18;3.20;1.00
3626;DHT22;1827;50.534;8.316;2022-12-07T18:48:44;3.20;1.00